Time;durP1;ratioP1;P1;durP2;ratioP2;P2;SDS_P1;SDS_P2;PMS_P1;PMS_P2;Temp;Humidity;BMP_temperature;BMP_pressure;BME280_temperature;BME280_humidity;BME280_pressure;Samples;Min_cycle;Max_cycle;Signal;HPM_P1;HPM_P2
2023/01/15 00:02:09;;;;;;;1.55;1.40;;;;;;;;;;10450242;28;20109;-79
2023/01/15 00:07:10;;;;;;;2.88;1.23;;;;;;;;;;10443614;28;20049;-76
2023/01/15 00:12:11;;;;;;;2.17;1.33;;;;;;;;;;10454563;28;20047;-77
2023/01/15 00:17:14;;;;;;;2.90;1.30;;;;;;;;;;10436286;28;20076;-78
2023/01/15 00:22:14;;;;;;;2.30;1.30;;;;;;;;;;10432648;28;20335;-77
2023/01/15 00:32:35;;;;;;;3.58;1.25;;;;;;;;;;10444593;28;20055;-78
2023/01/15 00:37:36;;;;;;;3.97;1.45;;;;;;;;;;10463054;28;20540;-77
2023/01/15 00:42:37;;;;;;;2.78;1.15;;;;;;;;;;10437237;28;20066;-76
2023/01/15 00:47:38;;;;;;;1.85;1.20;;;;;;;;;;10437599;28;20053;-79
2023/01/15 00:52:38;;;;;;;2.67;1.23;;;;;;;;;;10450683;28;20043;-77
2023/01/15 00:57:39;;;;;;;1.65;1.20;;;;;;;;;;10461164;28;20060;-79
2023/01/15 01:02:39;;;;;;;1.60;1.20;;;;;;;;;;10450831;28;20370;-78
2023/01/15 01:07:42;;;;;;;1.88;1.27;;;;;;;;;;10444355;28;20161;-79
2023/01/15 01:12:43;;;;;;;2.42;1.42;;;;;;;;;;10443084;28;20107;-78
2023/01/15 01:17:46;;;;;;;2.08;1.25;;;;;;;;;;10454916;28;20163;-80
2023/01/15 01:22:48;;;;;;;2.55;1.25;;;;;;;;;;10459820;28;20045;-79
2023/01/15 01:27:49;;;;;;;1.42;0.90;;;;;;;;;;10454924;28;20144;-77
2023/01/15 01:32:49;;;;;;;1.75;1.30;;;;;;;;;;10458990;28;20099;-78
2023/01/15 01:37:50;;;;;;;1.23;0.82;;;;;;;;;;10453572;28;20131;-82
2023/01/15 01:42:51;;;;;;;2.38;1.10;;;;;;;;;;10443272;28;20044;-81
2023/01/15 01:47:55;;;;;;;1.23;0.70;;;;;;;;;;10459054;28;20102;-82
2023/01/15 01:52:59;;;;;;;1.65;0.82;;;;;;;;;;10441738;28;20144;-81
2023/01/15 01:58:00;;;;;;;1.25;1.02;;;;;;;;;;10428636;28;20055;-79
2023/01/15 02:03:03;;;;;;;1.35;0.95;;;;;;;;;;10438290;28;20045;-77
2023/01/15 02:08:04;;;;;;;1.05;0.80;;;;;;;;;;10466269;28;20393;-76
2023/01/15 02:13:23;;;;;;;1.35;0.77;;;;;;;;;;10472698;28;20070;-77
2023/01/15 02:18:26;;;;;;;2.40;0.80;;;;;;;;;;10463373;28;20393;-76
2023/01/15 02:23:45;;;;;;;1.17;0.80;;;;;;;;;;10453138;28;20059;-80
2023/01/15 02:28:46;;;;;;;4.28;0.82;;;;;;;;;;10463385;28;20128;-78
2023/01/15 02:33:54;;;;;;;0.90;0.80;;;;;;;;;;10463697;28;20421;-80
2023/01/15 02:38:58;;;;;;;0.93;0.77;;;;;;;;;;10444827;28;20075;-76
2023/01/15 02:44:03;;;;;;;1.05;0.70;;;;;;;;;;10451589;28;20049;-76
2023/01/15 02:49:07;;;;;;;0.80;0.60;;;;;;;;;;10434655;28;20481;-75
2023/01/15 02:54:11;;;;;;;1.75;0.60;;;;;;;;;;10450617;28;20063;-77
2023/01/15 02:59:20;;;;;;;0.70;0.50;;;;;;;;;;10452275;28;20052;-77
2023/01/15 03:04:31;;;;;;;0.75;0.65;;;;;;;;;;10419220;28;20195;-77
2023/01/15 03:09:32;;;;;;;1.17;0.70;;;;;;;;;;10443404;28;20082;-78
2023/01/15 03:14:39;;;;;;;1.05;0.50;;;;;;;;;;10453225;28;20075;-78
2023/01/15 03:19:42;;;;;;;0.75;0.70;;;;;;;;;;10452825;28;20095;-77
2023/01/15 03:24:56;;;;;;;0.63;0.60;;;;;;;;;;10454858;28;20048;-79
2023/01/15 03:30:12;;;;;;;0.95;0.70;;;;;;;;;;10439614;28;20040;-77
2023/01/15 03:35:31;;;;;;;0.82;0.50;;;;;;;;;;10451432;28;20140;-76
2023/01/15 03:40:36;;;;;;;0.60;0.60;;;;;;;;;;10425314;28;20053;-76
2023/01/15 03:45:37;;;;;;;0.82;0.60;;;;;;;;;;10421195;28;20409;-75
2023/01/15 03:50:42;;;;;;;1.02;0.60;;;;;;;;;;10428912;28;20181;-77
2023/01/15 03:56:02;;;;;;;0.77;0.60;;;;;;;;;;10455199;28;20114;-77
2023/01/15 04:01:10;;;;;;;0.50;0.50;;;;;;;;;;10434929;28;20049;-77
2023/01/15 04:06:11;;;;;;;1.23;0.82;;;;;;;;;;10444267;28;20532;-77
2023/01/15 04:11:20;;;;;;;0.65;0.50;;;;;;;;;;10448908;28;20044;-76
2023/01/15 04:16:25;;;;;;;0.52;0.50;;;;;;;;;;10441165;28;20600;-75
2023/01/15 04:21:26;;;;;;;0.65;0.60;;;;;;;;;;10461217;28;20038;-76
2023/01/15 04:26:26;;;;;;;0.60;0.60;;;;;;;;;;10486530;28;20123;-76
2023/01/15 04:31:27;;;;;;;1.73;0.68;;;;;;;;;;10472254;28;20025;-76
2023/01/15 04:36:28;;;;;;;1.58;0.70;;;;;;;;;;10477742;28;20055;-78
2023/01/15 04:46:48;;;;;;;1.70;0.70;;;;;;;;;;10464388;28;20577;-77
2023/01/15 04:51:48;;;;;;;0.98;0.70;;;;;;;;;;10448646;28;20052;-77
2023/01/15 04:56:51;;;;;;;0.65;0.63;;;;;;;;;;10422769;28;20448;-78
2023/01/15 05:01:52;;;;;;;0.75;0.75;;;;;;;;;;10464293;28;20163;-78
2023/01/15 05:06:53;;;;;;;0.55;0.50;;;;;;;;;;10456044;28;20424;-79
2023/01/15 05:11:54;;;;;;;0.82;0.60;;;;;;;;;;10420163;28;20186;-79
2023/01/15 05:16:54;;;;;;;0.90;0.50;;;;;;;;;;10456178;28;20114;-78
2023/01/15 05:21:56;;;;;;;1.25;0.80;;;;;;;;;;10457802;28;20048;-77
2023/01/15 05:26:57;;;;;;;0.82;0.50;;;;;;;;;;10425534;28;20048;-76
2023/01/15 05:31:57;;;;;;;0.80;0.60;;;;;;;;;;10456966;28;20040;-78
2023/01/15 05:36:59;;;;;;;0.60;0.60;;;;;;;;;;10444522;28;20052;-78
2023/01/15 05:42:01;;;;;;;0.45;0.45;;;;;;;;;;10464267;28;20332;-77
2023/01/15 05:47:04;;;;;;;0.65;0.60;;;;;;;;;;10453985;28;20152;-78
2023/01/15 05:52:05;;;;;;;0.52;0.52;;;;;;;;;;10455213;28;20045;-75
2023/01/15 05:57:05;;;;;;;1.08;0.52;;;;;;;;;;10431291;28;20061;-78
2023/01/15 06:02:06;;;;;;;1.20;0.70;;;;;;;;;;10449643;28;20557;-78
2023/01/15 06:07:06;;;;;;;2.08;0.68;;;;;;;;;;10458196;28;20098;-76
2023/01/15 06:12:07;;;;;;;1.48;0.68;;;;;;;;;;10435744;28;20079;-76
2023/01/15 06:17:07;;;;;;;1.23;0.80;;;;;;;;;;10434823;28;20057;-77
2023/01/15 06:22:08;;;;;;;0.90;0.70;;;;;;;;;;10448783;28;20290;-77
2023/01/15 06:27:09;;;;;;;0.82;0.60;;;;;;;;;;10455860;28;20037;-75
2023/01/15 06:32:10;;;;;;;0.40;0.40;;;;;;;;;;10440440;28;20085;-77
2023/01/15 06:37:10;;;;;;;1.80;1.00;;;;;;;;;;10444492;28;20056;-76
2023/01/15 06:47:30;;;;;;;0.93;0.50;;;;;;;;;;10457491;28;20347;-77
2023/01/15 06:52:30;;;;;;;1.17;0.60;;;;;;;;;;10464288;28;20041;-79
2023/01/15 06:57:31;;;;;;;0.55;0.40;;;;;;;;;;10450966;28;20055;-79
2023/01/15 07:02:31;;;;;;;1.03;0.70;;;;;;;;;;10452233;28;20095;-78
2023/01/15 07:07:32;;;;;;;0.40;0.40;;;;;;;;;;10451963;28;20283;-77
2023/01/15 07:12:33;;;;;;;0.95;0.50;;;;;;;;;;10433522;28;20493;-78
2023/01/15 07:17:34;;;;;;;0.55;0.40;;;;;;;;;;10434053;28;20045;-79
2023/01/15 07:22:35;;;;;;;0.57;0.50;;;;;;;;;;10449022;28;20087;-76
2023/01/15 07:27:35;;;;;;;0.40;0.40;;;;;;;;;;10420129;28;20124;-76
2023/01/15 07:32:36;;;;;;;0.40;0.40;;;;;;;;;;10420536;28;20695;-75
2023/01/15 07:37:38;;;;;;;0.75;0.60;;;;;;;;;;10448996;28;20084;-76
2023/01/15 07:53:16;;;;;;;1.15;0.60;;;;;;;;;;10443284;28;20048;-77
2023/01/15 07:58:18;;;;;;;0.85;0.68;;;;;;;;;;10425881;28;20056;-78
2023/01/15 08:03:19;;;;;;;0.50;0.50;;;;;;;;;;10436501;28;20498;-79
2023/01/15 08:08:19;;;;;;;0.57;0.50;;;;;;;;;;10415465;28;20059;-77
2023/01/15 08:18:38;;;;;;;0.60;0.43;;;;;;;;;;10432137;28;20306;-77
2023/01/15 08:23:42;;;;;;;0.55;0.47;;;;;;;;;;10436241;28;20048;-77
2023/01/15 08:28:42;;;;;;;0.87;0.50;;;;;;;;;;10444040;28;20060;-76
2023/01/15 08:33:42;;;;;;;1.33;0.60;;;;;;;;;;10445689;28;20540;-76
2023/01/15 08:38:43;;;;;;;1.48;0.88;;;;;;;;;;10450297;28;20306;-76
2023/01/15 08:43:44;;;;;;;2.33;0.95;;;;;;;;;;10434643;28;20056;-76
2023/01/15 08:48:46;;;;;;;0.73;0.60;;;;;;;;;;10430852;28;20330;-76
2023/01/15 08:53:47;;;;;;;0.60;0.60;;;;;;;;;;10451861;28;20058;-77
2023/01/15 08:58:47;;;;;;;1.55;0.70;;;;;;;;;;10448974;28;20618;-76
2023/01/15 09:03:48;;;;;;;1.00;0.70;;;;;;;;;;10465186;28;20050;-79
2023/01/15 09:08:49;;;;;;;2.35;1.50;;;;;;;;;;10465554;28;20048;-77
2023/01/15 09:13:50;;;;;;;0.75;0.50;;;;;;;;;;10434797;28;20394;-77
2023/01/15 09:18:51;;;;;;;1.63;0.73;;;;;;;;;;10474212;28;20324;-78
2023/01/15 09:23:51;;;;;;;0.75;0.60;;;;;;;;;;10474442;28;20048;-77
2023/01/15 09:28:52;;;;;;;1.42;0.80;;;;;;;;;;10456170;28;20047;-79
2023/01/15 09:33:54;;;;;;;1.77;0.90;;;;;;;;;;10464967;28;20048;-80
2023/01/15 09:38:56;;;;;;;2.00;1.55;;;;;;;;;;10455210;28;20060;-78
2023/01/15 09:44:22;;;;;;;2.92;1.50;;;;;;;;;;10453058;28;20702;-79
2023/01/15 09:49:27;;;;;;;3.90;1.70;;;;;;;;;;10439645;28;20048;-78
2023/01/15 09:54:47;;;;;;;1.20;0.95;;;;;;;;;;10455763;28;20118;-79
2023/01/15 09:59:50;;;;;;;1.40;1.25;;;;;;;;;;10452156;28;20409;-84
2023/01/15 10:05:01;;;;;;;1.35;0.90;;;;;;;;;;10454409;28;20045;-86
2023/01/15 10:15:19;;;;;;;1.20;0.73;;;;;;;;;;10476265;28;20045;-81
2023/01/15 10:20:23;;;;;;;1.58;1.10;;;;;;;;;;10487086;28;20048;-85
2023/01/15 10:25:26;;;;;;;0.70;0.70;;;;;;;;;;10478879;28;20068;-81
2023/01/15 10:30:40;;;;;;;0.50;0.50;;;;;;;;;;10477804;28;20072;-80
2023/01/15 10:41:09;;;;;;;1.02;0.70;;;;;;;;;;10428555;28;20045;-78
2023/01/15 10:46:15;;;;;;;0.70;0.52;;;;;;;;;;10426755;28;20720;-82
2023/01/15 10:51:38;;;;;;;0.50;0.50;;;;;;;;;;10404121;28;20481;-80
2023/01/15 11:02:13;;;;;;;1.40;0.93;;;;;;;;;;2345091;22;20065;-80
2023/01/15 11:07:17;;;;;;;1.05;0.95;;;;;;;;;;10420834;28;20049;-81
2023/01/15 11:23:17;;;;;;;1.57;1.20;;;;;;;;;;10370026;28;20085;-77
2023/01/15 11:28:18;;;;;;;2.08;1.88;;;;;;;;;;10375780;28;20037;-78
2023/01/15 11:33:21;;;;;;;3.67;2.60;;;;;;;;;;10376735;28;20068;-78
2023/01/15 11:38:22;;;;;;;2.10;1.33;;;;;;;;;;10371085;28;20135;-80
2023/01/15 11:54:07;;;;;;;2.85;1.65;;;;;;;;;;10387323;28;20087;-78
2023/01/15 11:59:11;;;;;;;2.00;1.77;;;;;;;;;;10379983;28;20097;-81
2023/01/15 12:04:25;;;;;;;2.45;1.40;;;;;;;;;;10382479;28;20057;-78
2023/01/15 12:09:45;;;;;;;1.45;1.10;;;;;;;;;;10387637;28;20105;-82
2023/01/15 12:14:52;;;;;;;2.42;1.50;;;;;;;;;;10383372;28;20049;-80
2023/01/15 12:20:11;;;;;;;6.43;1.42;;;;;;;;;;10362052;28;20493;-80
2023/01/15 12:25:27;;;;;;;2.15;1.17;;;;;;;;;;10374549;28;20413;-79
2023/01/15 12:30:37;;;;;;;0.90;0.80;;;;;;;;;;10370209;28;20056;-80
2023/01/15 12:35:43;;;;;;;0.60;0.60;;;;;;;;;;10367411;28;20100;-78
2023/01/15 12:40:47;;;;;;;2.05;0.93;;;;;;;;;;10367878;28;20045;-78
2023/01/15 12:45:53;;;;;;;2.05;0.88;;;;;;;;;;10362045;28;20631;-77
2023/01/15 12:50:55;;;;;;;1.45;0.90;;;;;;;;;;10378030;28;20138;-77
2023/01/15 12:56:10;;;;;;;1.73;1.05;;;;;;;;;;10374568;28;20053;-77
2023/01/15 13:01:24;;;;;;;2.65;1.15;;;;;;;;;;10372538;28;20045;-78
2023/01/15 13:06:27;;;;;;;;;;;;;;;;;;10382999;28;20512;-81
2023/01/15 13:11:28;;;;;;;1.25;1.02;;;;;;;;;;10384097;28;19959;-80
2023/01/15 13:16:37;;;;;;;1.70;0.77;;;;;;;;;;10369842;28;20089;-74
2023/01/15 13:21:39;;;;;;;1.92;1.35;;;;;;;;;;10383542;28;20149;-77
2023/01/15 13:26:46;;;;;;;2.47;1.58;;;;;;;;;;10353236;28;20148;-76
2023/01/15 13:31:52;;;;;;;1.20;0.80;;;;;;;;;;10356216;28;20060;-79
2023/01/15 13:36:53;;;;;;;1.73;1.00;;;;;;;;;;10367272;28;20053;-77
2023/01/15 13:53:15;;;;;;;1.08;0.80;;;;;;;;;;10396283;28;20046;-78
2023/01/15 13:58:18;;;;;;;0.98;0.60;;;;;;;;;;10382986;28;20054;-78
2023/01/15 14:03:26;;;;;;;2.47;0.90;;;;;;;;;;10373174;28;20053;-80
2023/01/15 14:08:28;;;;;;;1.90;0.98;;;;;;;;;;10380484;28;20099;-76
2023/01/15 14:13:41;;;;;;;1.55;0.85;;;;;;;;;;10368444;28;20060;-77
2023/01/15 14:18:47;;;;;;;2.05;1.20;;;;;;;;;;10366558;28;20042;-76
2023/01/15 14:24:07;;;;;;;1.95;1.00;;;;;;;;;;10366077;28;20049;-75
2023/01/15 14:29:13;;;;;;;2.40;1.40;;;;;;;;;;10378163;28;20048;-75
2023/01/15 14:34:19;;;;;;;1.83;1.20;;;;;;;;;;10377802;28;20057;-75
2023/01/15 14:39:25;;;;;;;1.88;1.23;;;;;;;;;;10373542;28;20046;-76
2023/01/15 14:44:30;;;;;;;2.03;1.40;;;;;;;;;;10372733;28;20037;-81
2023/01/15 14:49:42;;;;;;;1.60;1.10;;;;;;;;;;10371528;28;20768;-77
2023/01/15 14:54:43;;;;;;;1.90;1.33;;;;;;;;;;10368223;28;20108;-76
2023/01/15 14:59:47;;;;;;;2.03;1.48;;;;;;;;;;10369997;28;20121;-76
2023/01/15 15:04:52;;;;;;;2.20;1.90;;;;;;;;;;10364675;28;20046;-77
2023/01/15 15:10:01;;;;;;;2.20;1.50;;;;;;;;;;10413596;28;20053;-79
2023/01/15 15:15:06;;;;;;;2.85;1.77;;;;;;;;;;10426976;28;20044;-77
2023/01/15 15:20:20;;;;;;;3.80;1.90;;;;;;;;;;10421922;28;20046;-77
2023/01/15 15:25:24;;;;;;;1.92;1.55;;;;;;;;;;10413990;28;20041;-85
2023/01/15 15:30:26;;;;;;;1.77;1.10;;;;;;;;;;10419782;28;20060;-77
2023/01/15 15:35:28;;;;;;;;;;;;;;;;;;10420861;28;20041;-79
2023/01/15 15:40:36;;;;;;;3.10;1.65;;;;;;;;;;10421632;28;20380;-82
2023/01/15 15:50:55;;;;;;;1.85;1.33;;;;;;;;;;10408380;28;20073;-78
2023/01/15 15:55:57;;;;;;;3.47;2.15;;;;;;;;;;10424354;28;20049;-76
2023/01/15 16:00:57;;;;;;;3.55;1.60;;;;;;;;;;10417550;28;20037;-76
2023/01/15 16:06:03;;;;;;;2.00;1.58;;;;;;;;;;10414293;28;20497;-77
2023/01/15 16:11:06;;;;;;;2.28;1.42;;;;;;;;;;10419259;28;20770;-80
2023/01/15 16:16:10;;;;;;;2.72;1.83;;;;;;;;;;10413325;28;20076;-78
2023/01/15 16:21:15;;;;;;;2.75;1.45;;;;;;;;;;10439422;28;20045;-78
2023/01/15 16:26:20;;;;;;;3.00;1.80;;;;;;;;;;10462697;28;20118;-76
2023/01/15 16:31:21;;;;;;;3.47;1.50;;;;;;;;;;10455988;28;20045;-81
2023/01/15 16:36:24;;;;;;;5.45;2.78;;;;;;;;;;10455249;28;20218;-81
2023/01/15 16:41:31;;;;;;;;;;;;;;;;;;10433087;28;20095;-81
2023/01/15 16:46:37;;;;;;;3.30;1.60;;;;;;;;;;10425771;28;19916;-79
2023/01/15 16:51:41;;;;;;;3.83;1.95;;;;;;;;;;10424212;28;20132;-77
2023/01/15 16:56:42;;;;;;;3.70;2.00;;;;;;;;;;10433174;28;20188;-78
2023/01/15 17:01:45;;;;;;;3.63;2.08;;;;;;;;;;10433448;28;20040;-77
2023/01/15 17:06:53;;;;;;;5.70;2.40;;;;;;;;;;10417365;28;20141;-77
2023/01/15 17:12:02;;;;;;;6.15;3.47;;;;;;;;;;10412205;28;20421;-76
2023/01/15 17:17:18;;;;;;;6.32;3.50;;;;;;;;;;10405521;28;20058;-78
2023/01/15 17:22:31;;;;;;;7.22;3.67;;;;;;;;;;10416532;28;20884;-79
2023/01/15 17:27:33;;;;;;;4.43;3.03;;;;;;;;;;10429299;28;20029;-76
2023/01/15 17:32:36;;;;;;;5.90;3.40;;;;;;;;;;10402203;28;20044;-79
2023/01/15 17:37:38;;;;;;;6.25;3.33;;;;;;;;;;10419542;28;20327;-78
2023/01/15 17:42:39;;;;;;;5.95;2.80;;;;;;;;;;10409906;28;20821;-78
2023/01/15 17:47:40;;;;;;;4.68;3.00;;;;;;;;;;10421031;28;20064;-81
2023/01/15 17:52:41;;;;;;;4.35;2.95;;;;;;;;;;10425173;28;20045;-78
2023/01/15 18:08:21;;;;;;;4.93;2.92;;;;;;;;;;10420075;28;20099;-77
2023/01/15 18:13:21;;;;;;;4.70;2.22;;;;;;;;;;10429492;28;20128;-76
2023/01/15 18:18:22;;;;;;;6.47;3.10;;;;;;;;;;10429378;28;20128;-76
2023/01/15 18:23:22;;;;;;;3.63;2.22;;;;;;;;;;10426589;28;20041;-75
2023/01/15 18:28:22;;;;;;;3.77;2.10;;;;;;;;;;10431832;28;20037;-76
2023/01/15 18:33:23;;;;;;;4.13;2.40;;;;;;;;;;10424318;28;20299;-75
2023/01/15 18:38:23;;;;;;;4.05;2.50;;;;;;;;;;10419234;28;20393;-78
2023/01/15 18:48:44;;;;;;;5.75;3.13;;;;;;;;;;10390673;28;20041;-78
2023/01/15 18:53:47;;;;;;;4.78;3.17;;;;;;;;;;10389055;28;20054;-76
2023/01/15 18:58:47;;;;;;;;;;;;;;;;;;10377324;28;20068;-76
2023/01/15 19:03:48;;;;;;;5.00;3.20;;;;;;;;;;10398609;28;20440;-75
2023/01/15 19:08:48;;;;;;;5.65;3.22;;;;;;;;;;10456365;28;20044;-77
2023/01/15 19:18:40;;;;;;;4.60;2.78;;;;;;;;;;10422191;28;20126;-77
2023/01/15 19:19:15;;;;;;;5.72;3.08;;;;;;;;;;10413945;28;20507;-76
2023/01/15 19:24:17;;;;;;;4.35;2.83;;;;;;;;;;10414146;28;20051;-78
2023/01/15 19:29:17;;;;;;;5.70;2.80;;;;;;;;;;10381491;28;20045;-79
2023/01/15 19:34:17;;;;;;;3.40;2.80;;;;;;;;;;10396365;28;20312;-77
2023/01/15 19:39:18;;;;;;;3.97;2.40;;;;;;;;;;10419353;28;20041;-81
2023/01/15 19:54:59;;;;;;;4.80;2.58;;;;;;;;;;10409719;28;20111;-78
2023/01/15 19:59:59;;;;;;;3.15;1.95;;;;;;;;;;10417629;28;20057;-78
2023/01/15 20:04:59;;;;;;;2.50;1.65;;;;;;;;;;10421479;28;20053;-77
2023/01/15 20:10:01;;;;;;;2.13;1.55;;;;;;;;;;10412383;28;20375;-79
2023/01/15 20:15:01;;;;;;;3.67;1.40;;;;;;;;;;10381093;28;20053;-80
2023/01/15 20:20:02;;;;;;;3.45;1.55;;;;;;;;;;10409522;28;20041;-78
2023/01/15 20:25:02;;;;;;;2.10;1.42;;;;;;;;;;10414186;28;20041;-80
2023/01/15 20:30:08;;;;;;;2.25;1.20;;;;;;;;;;10415663;28;20160;-80
2023/01/15 20:35:11;;;;;;;3.75;1.95;;;;;;;;;;10412037;28;20119;-77
2023/01/15 20:40:11;;;;;;;2.75;1.40;;;;;;;;;;10381809;28;20045;-75
2023/01/15 20:45:12;;;;;;;3.00;1.48;;;;;;;;;;10420401;28;20060;-78
2023/01/15 20:50:14;;;;;;;2.30;1.38;;;;;;;;;;10397780;28;20041;-75
2023/01/15 20:55:16;;;;;;;2.28;1.30;;;;;;;;;;10410818;28;20057;-75
2023/01/15 21:00:19;;;;;;;2.83;1.48;;;;;;;;;;10418598;28;20061;-78
2023/01/15 21:05:20;;;;;;;3.22;1.77;;;;;;;;;;10437504;28;20057;-76
2023/01/15 21:10:21;;;;;;;2.50;1.30;;;;;;;;;;10419066;28;20190;-75
2023/01/15 21:15:22;;;;;;;2.85;1.75;;;;;;;;;;10428082;28;20054;-77
2023/01/15 21:20:22;;;;;;;4.77;1.90;;;;;;;;;;10427810;28;20436;-76
2023/01/15 21:25:24;;;;;;;2.42;1.90;;;;;;;;;;10409323;28;20593;-75
2023/01/15 21:30:26;;;;;;;3.97;1.60;;;;;;;;;;10420382;28;20486;-76
2023/01/15 21:35:26;;;;;;;2.60;1.88;;;;;;;;;;10414309;28;20420;-74
2023/01/15 21:40:27;;;;;;;2.90;2.53;;;;;;;;;;10405029;28;20148;-75
2023/01/15 21:45:27;;;;;;;5.00;2.58;;;;;;;;;;10402377;28;20280;-75
2023/01/15 21:50:28;;;;;;;3.60;2.42;;;;;;;;;;10387798;28;20513;-74
2023/01/15 21:55:28;;;;;;;5.53;2.58;;;;;;;;;;10397415;28;20560;-75
2023/01/15 22:00:32;;;;;;;3.78;2.42;;;;;;;;;;10399559;28;20045;-76
2023/01/15 22:05:32;;;;;;;;;;;;;;;;;;10416647;28;20041;-75
2023/01/15 22:10:34;;;;;;;4.45;1.90;;;;;;;;;;10412922;28;19971;-74
2023/01/15 22:15:36;;;;;;;4.32;2.17;;;;;;;;;;10411409;28;20064;-76
2023/01/15 22:20:36;;;;;;;2.42;1.80;;;;;;;;;;10398193;28;20101;-77
2023/01/15 22:25:41;;;;;;;2.60;1.90;;;;;;;;;;10392138;28;20067;-74
2023/01/15 22:30:42;;;;;;;3.58;1.85;;;;;;;;;;10412656;28;20080;-76
2023/01/15 22:35:42;;;;;;;3.58;2.25;;;;;;;;;;10416102;28;20133;-76
2023/01/15 22:40:44;;;;;;;2.75;1.60;;;;;;;;;;10374444;28;20079;-75
2023/01/15 22:45:46;;;;;;;4.00;1.77;;;;;;;;;;10404035;28;20132;-75
2023/01/15 22:50:48;;;;;;;3.97;1.70;;;;;;;;;;10397354;28;20052;-74
2023/01/15 22:55:57;;;;;;;3.22;2.15;;;;;;;;;;10410769;28;20073;-76
2023/01/15 23:00:57;;;;;;;2.17;1.63;;;;;;;;;;10403871;28;20497;-77
2023/01/15 23:06:01;;;;;;;2.33;2.13;;;;;;;;;;10374118;28;20053;-77
2023/01/15 23:11:07;;;;;;;3.25;1.55;;;;;;;;;;10410095;28;20081;-74
2023/01/15 23:16:08;;;;;;;2.33;1.77;;;;;;;;;;10417865;28;20064;-74
2023/01/15 23:21:09;;;;;;;2.70;1.77;;;;;;;;;;10410683;28;20056;-75
2023/01/15 23:26:12;;;;;;;1.98;1.40;;;;;;;;;;10413830;28;20061;-75
2023/01/15 23:31:12;;;;;;;4.47;1.77;;;;;;;;;;10409365;28;20478;-74
2023/01/15 23:36:13;;;;;;;1.95;1.55;;;;;;;;;;10417905;28;20060;-73
2023/01/15 23:41:18;;;;;;;2.97;1.48;;;;;;;;;;10422501;28;20037;-75
2023/01/15 23:46:40;;;;;;;2.45;1.40;;;;;;;;;;10385921;28;20744;-73
2023/01/15 23:51:39;;;;;;;3.28;1.65;;;;;;;;;;10397510;28;20045;-75
2023/01/15 23:56:40;;;;;;;1.70;1.13;;;;;;;;;;10410327;28;20340;-77
